sensor_id;sensor_type;location;lat;lon;timestamp;P1;durP1;ratioP1;P2;durP2;ratioP2
11052;SDS011;55230;42.602;23.470;2022-08-19T00:01:42;5.27;;;4.77;;
11052;SDS011;55230;42.602;23.470;2022-08-19T00:04:11;5.60;;;5.10;;
11052;SDS011;55230;42.602;23.470;2022-08-19T00:06:39;5.47;;;4.97;;
11052;SDS011;55230;42.602;23.470;2022-08-19T00:09:08;5.33;;;4.50;;
11052;SDS011;55230;42.602;23.470;2022-08-19T00:11:37;5.30;;;4.80;;
11052;SDS011;55230;42.602;23.470;2022-08-19T00:14:06;5.30;;;4.90;;
11052;SDS011;55230;42.602;23.470;2022-08-19T00:16:35;6.33;;;4.83;;
11052;SDS011;55230;42.602;23.470;2022-08-19T00:19:02;5.77;;;5.20;;
11052;SDS011;55230;42.602;23.470;2022-08-19T00:21:29;6.47;;;4.97;;
11052;SDS011;55230;42.602;23.470;2022-08-19T00:23:56;5.70;;;5.20;;
11052;SDS011;55230;42.602;23.470;2022-08-19T00:26:24;5.80;;;4.93;;
11052;SDS011;55230;42.602;23.470;2022-08-19T00:28:51;5.73;;;5.27;;
11052;SDS011;55230;42.602;23.470;2022-08-19T00:31:20;6.20;;;5.40;;
11052;SDS011;55230;42.602;23.470;2022-08-19T00:33:47;5.27;;;4.77;;
11052;SDS011;55230;42.602;23.470;2022-08-19T00:36:15;7.00;;;4.87;;
11052;SDS011;55230;42.602;23.470;2022-08-19T00:38:43;5.10;;;4.67;;
11052;SDS011;55230;42.602;23.470;2022-08-19T00:41:12;5.87;;;5.30;;
11052;SDS011;55230;42.602;23.470;2022-08-19T00:43:41;6.60;;;5.60;;
11052;SDS011;55230;42.602;23.470;2022-08-19T00:46:08;7.47;;;5.77;;
11052;SDS011;55230;42.602;23.470;2022-08-19T00:48:36;5.87;;;5.27;;
11052;SDS011;55230;42.602;23.470;2022-08-19T00:51:03;6.57;;;5.90;;
11052;SDS011;55230;42.602;23.470;2022-08-19T00:53:32;6.30;;;5.70;;
11052;SDS011;55230;42.602;23.470;2022-08-19T00:56:00;6.37;;;5.10;;
11052;SDS011;55230;42.602;23.470;2022-08-19T00:58:32;5.90;;;5.40;;
11052;SDS011;55230;42.602;23.470;2022-08-19T01:01:01;6.60;;;5.37;;
11052;SDS011;55230;42.602;23.470;2022-08-19T01:03:28;5.63;;;5.03;;
11052;SDS011;55230;42.602;23.470;2022-08-19T01:05:56;7.50;;;6.67;;
11052;SDS011;55230;42.602;23.470;2022-08-19T01:08:25;6.43;;;5.53;;
11052;SDS011;55230;42.602;23.470;2022-08-19T01:10:52;6.00;;;5.50;;
11052;SDS011;55230;42.602;23.470;2022-08-19T01:13:22;5.30;;;4.90;;
11052;SDS011;55230;42.602;23.470;2022-08-19T01:15:54;8.40;;;7.60;;
11052;SDS011;55230;42.602;23.470;2022-08-19T01:18:23;9.00;;;7.47;;
11052;SDS011;55230;42.602;23.470;2022-08-19T01:20:53;9.93;;;8.73;;
11052;SDS011;55230;42.602;23.470;2022-08-19T01:23:24;8.73;;;6.53;;
11052;SDS011;55230;42.602;23.470;2022-08-19T01:26:08;8.17;;;7.37;;
11052;SDS011;55230;42.602;23.470;2022-08-19T01:28:35;8.37;;;7.57;;
11052;SDS011;55230;42.602;23.470;2022-08-19T01:31:04;7.63;;;6.93;;
11052;SDS011;55230;42.602;23.470;2022-08-19T01:33:31;9.93;;;8.47;;
11052;SDS011;55230;42.602;23.470;2022-08-19T01:36:03;8.40;;;7.60;;
11052;SDS011;55230;42.602;23.470;2022-08-19T01:38:34;8.67;;;7.87;;
11052;SDS011;55230;42.602;23.470;2022-08-19T01:41:03;12.53;;;7.97;;
11052;SDS011;55230;42.602;23.470;2022-08-19T01:43:31;8.40;;;7.60;;
11052;SDS011;55230;42.602;23.470;2022-08-19T01:45:58;7.93;;;7.23;;
11052;SDS011;55230;42.602;23.470;2022-08-19T01:48:25;8.30;;;7.50;;
11052;SDS011;55230;42.602;23.470;2022-08-19T01:50:54;7.93;;;7.23;;
11052;SDS011;55230;42.602;23.470;2022-08-19T01:53:21;7.40;;;6.70;;
11052;SDS011;55230;42.602;23.470;2022-08-19T01:55:49;6.17;;;5.67;;
11052;SDS011;55230;42.602;23.470;2022-08-19T01:58:17;6.60;;;6.00;;
11052;SDS011;55230;42.602;23.470;2022-08-19T02:00:48;6.47;;;5.97;;
11052;SDS011;55230;42.602;23.470;2022-08-19T02:03:15;5.53;;;5.03;;
11052;SDS011;55230;42.602;23.470;2022-08-19T02:05:43;6.93;;;5.87;;
11052;SDS011;55230;42.602;23.470;2022-08-19T02:08:10;6.17;;;5.57;;
11052;SDS011;55230;42.602;23.470;2022-08-19T02:10:38;6.33;;;5.30;;
11052;SDS011;55230;42.602;23.470;2022-08-19T02:13:09;6.50;;;5.80;;
11052;SDS011;55230;42.602;23.470;2022-08-19T02:15:37;8.23;;;6.07;;
11052;SDS011;55230;42.602;23.470;2022-08-19T02:18:04;6.60;;;5.70;;
11052;SDS011;55230;42.602;23.470;2022-08-19T02:20:32;7.07;;;6.33;;
11052;SDS011;55230;42.602;23.470;2022-08-19T02:22:59;11.50;;;6.57;;
11052;SDS011;55230;42.602;23.470;2022-08-19T02:25:26;7.37;;;6.40;;
11052;SDS011;55230;42.602;23.470;2022-08-19T02:27:53;7.20;;;6.50;;
11052;SDS011;55230;42.602;23.470;2022-08-19T02:30:21;7.70;;;6.93;;
11052;SDS011;55230;42.602;23.470;2022-08-19T02:32:49;9.47;;;8.10;;
11052;SDS011;55230;42.602;23.470;2022-08-19T02:35:17;19.07;;;16.03;;
11052;SDS011;55230;42.602;23.470;2022-08-19T02:37:44;32.63;;;26.40;;
11052;SDS011;55230;42.602;23.470;2022-08-19T02:40:29;26.43;;;19.60;;
11052;SDS011;55230;42.602;23.470;2022-08-19T02:42:59;15.90;;;13.17;;
11052;SDS011;55230;42.602;23.470;2022-08-19T02:45:30;16.73;;;12.70;;
11052;SDS011;55230;42.602;23.470;2022-08-19T02:47:58;11.53;;;9.60;;
11052;SDS011;55230;42.602;23.470;2022-08-19T02:50:25;11.30;;;8.80;;
11052;SDS011;55230;42.602;23.470;2022-08-19T02:52:52;10.53;;;8.30;;
11052;SDS011;55230;42.602;23.470;2022-08-19T02:55:19;8.80;;;7.90;;
11052;SDS011;55230;42.602;23.470;2022-08-19T02:57:46;8.33;;;7.53;;
11052;SDS011;55230;42.602;23.470;2022-08-19T03:00:13;8.33;;;7.13;;
11052;SDS011;55230;42.602;23.470;2022-08-19T03:02:42;9.17;;;7.20;;
11052;SDS011;55230;42.602;23.470;2022-08-19T03:05:09;8.53;;;7.60;;
11052;SDS011;55230;42.602;23.470;2022-08-19T03:07:36;7.67;;;6.87;;
11052;SDS011;55230;42.602;23.470;2022-08-19T03:10:03;9.37;;;6.87;;
11052;SDS011;55230;42.602;23.470;2022-08-19T03:12:31;7.27;;;6.60;;
11052;SDS011;55230;42.602;23.470;2022-08-19T03:15:02;6.77;;;6.17;;
11052;SDS011;55230;42.602;23.470;2022-08-19T03:17:31;7.27;;;6.57;;
11052;SDS011;55230;42.602;23.470;2022-08-19T03:19:59;7.20;;;6.50;;
11052;SDS011;55230;42.602;23.470;2022-08-19T03:22:26;7.63;;;6.20;;
11052;SDS011;55230;42.602;23.470;2022-08-19T03:24:53;6.87;;;5.97;;
11052;SDS011;55230;42.602;23.470;2022-08-19T03:27:20;7.10;;;6.40;;
11052;SDS011;55230;42.602;23.470;2022-08-19T03:29:47;7.00;;;6.40;;
11052;SDS011;55230;42.602;23.470;2022-08-19T03:32:14;6.80;;;5.77;;
11052;SDS011;55230;42.602;23.470;2022-08-19T03:34:41;6.73;;;6.07;;
11052;SDS011;55230;42.602;23.470;2022-08-19T03:37:10;6.20;;;5.70;;
11052;SDS011;55230;42.602;23.470;2022-08-19T03:39:38;7.53;;;6.20;;
11052;SDS011;55230;42.602;23.470;2022-08-19T03:42:07;6.37;;;5.77;;
11052;SDS011;55230;42.602;23.470;2022-08-19T03:44:34;7.10;;;6.13;;
11052;SDS011;55230;42.602;23.470;2022-08-19T03:47:02;6.97;;;6.37;;
11052;SDS011;55230;42.602;23.470;2022-08-19T03:49:30;13.23;;;11.17;;
11052;SDS011;55230;42.602;23.470;2022-08-19T03:52:00;10.43;;;8.60;;
11052;SDS011;55230;42.602;23.470;2022-08-19T03:54:31;7.00;;;6.40;;
11052;SDS011;55230;42.602;23.470;2022-08-19T03:56:58;8.27;;;6.53;;
11052;SDS011;55230;42.602;23.470;2022-08-19T03:59:26;7.03;;;6.33;;
11052;SDS011;55230;42.602;23.470;2022-08-19T04:01:55;6.17;;;5.67;;
11052;SDS011;55230;42.602;23.470;2022-08-19T04:04:22;7.03;;;5.60;;
11052;SDS011;55230;42.602;23.470;2022-08-19T04:06:50;6.43;;;5.83;;
11052;SDS011;55230;42.602;23.470;2022-08-19T04:09:18;6.97;;;6.37;;
11052;SDS011;55230;42.602;23.470;2022-08-19T04:11:48;7.27;;;6.57;;
11052;SDS011;55230;42.602;23.470;2022-08-19T04:14:20;8.10;;;6.80;;
11052;SDS011;55230;42.602;23.470;2022-08-19T04:16:49;8.37;;;7.57;;
11052;SDS011;55230;42.602;23.470;2022-08-19T04:19:17;7.97;;;7.20;;
11052;SDS011;55230;42.602;23.470;2022-08-19T04:21:46;10.20;;;7.20;;
11052;SDS011;55230;42.602;23.470;2022-08-19T04:24:14;12.20;;;10.37;;
11052;SDS011;55230;42.602;23.470;2022-08-19T04:26:42;40.03;;;29.47;;
11052;SDS011;55230;42.602;23.470;2022-08-19T04:29:11;11.03;;;10.03;;
11052;SDS011;55230;42.602;23.470;2022-08-19T04:31:40;8.83;;;7.00;;
11052;SDS011;55230;42.602;23.470;2022-08-19T04:34:09;7.07;;;6.37;;
11052;SDS011;55230;42.602;23.470;2022-08-19T04:36:38;8.10;;;7.20;;
11052;SDS011;55230;42.602;23.470;2022-08-19T04:39:07;8.03;;;7.33;;
11052;SDS011;55230;42.602;23.470;2022-08-19T04:41:36;7.53;;;6.83;;
11052;SDS011;55230;42.602;23.470;2022-08-19T04:44:22;9.67;;;8.03;;
11052;SDS011;55230;42.602;23.470;2022-08-19T04:46:50;8.70;;;7.80;;
11052;SDS011;55230;42.602;23.470;2022-08-19T04:49:18;8.97;;;7.30;;
11052;SDS011;55230;42.602;23.470;2022-08-19T04:51:47;8.07;;;7.37;;
11052;SDS011;55230;42.602;23.470;2022-08-19T04:54:14;7.57;;;6.83;;
11052;SDS011;55230;42.602;23.470;2022-08-19T04:56:42;7.65;;;7.05;;
11052;SDS011;55230;42.602;23.470;2022-08-19T04:59:10;7.80;;;7.10;;
11052;SDS011;55230;42.602;23.470;2022-08-19T05:01:38;8.70;;;7.87;;
11052;SDS011;55230;42.602;23.470;2022-08-19T05:04:05;16.23;;;8.67;;
11052;SDS011;55230;42.602;23.470;2022-08-19T05:06:33;18.77;;;8.13;;
11052;SDS011;55230;42.602;23.470;2022-08-19T05:09:02;15.37;;;8.80;;
11052;SDS011;55230;42.602;23.470;2022-08-19T05:11:31;10.93;;;7.67;;
11052;SDS011;55230;42.602;23.470;2022-08-19T05:14:01;12.07;;;8.13;;
11052;SDS011;55230;42.602;23.470;2022-08-19T05:16:28;11.33;;;7.27;;
11052;SDS011;55230;42.602;23.470;2022-08-19T05:18:57;16.53;;;8.40;;
11052;SDS011;55230;42.602;23.470;2022-08-19T05:21:41;10.98;;;7.82;;
11052;SDS011;55230;42.602;23.470;2022-08-19T05:24:27;14.60;;;8.15;;
11052;SDS011;55230;42.602;23.470;2022-08-19T05:26:55;15.10;;;8.13;;
11052;SDS011;55230;42.602;23.470;2022-08-19T05:29:24;9.90;;;7.80;;
11052;SDS011;55230;42.602;23.470;2022-08-19T05:31:53;8.60;;;7.00;;
11052;SDS011;55230;42.602;23.470;2022-08-19T05:34:23;9.18;;;7.70;;
11052;SDS011;55230;42.602;23.470;2022-08-19T05:36:51;9.33;;;7.90;;
11052;SDS011;55230;42.602;23.470;2022-08-19T05:39:22;10.30;;;7.43;;
11052;SDS011;55230;42.602;23.470;2022-08-19T05:41:52;11.97;;;7.67;;
11052;SDS011;55230;42.602;23.470;2022-08-19T05:44:22;12.40;;;7.73;;
11052;SDS011;55230;42.602;23.470;2022-08-19T05:46:50;11.03;;;7.77;;
11052;SDS011;55230;42.602;23.470;2022-08-19T05:49:19;9.10;;;6.70;;
11052;SDS011;55230;42.602;23.470;2022-08-19T05:51:49;10.70;;;7.70;;
11052;SDS011;55230;42.602;23.470;2022-08-19T05:54:16;7.97;;;7.18;;
11052;SDS011;55230;42.602;23.470;2022-08-19T05:56:44;10.85;;;8.27;;
11052;SDS011;55230;42.602;23.470;2022-08-19T05:59:13;10.52;;;8.70;;
11052;SDS011;55230;42.602;23.470;2022-08-19T06:01:42;8.73;;;7.88;;
11052;SDS011;55230;42.602;23.470;2022-08-19T06:04:11;10.93;;;7.45;;
11052;SDS011;55230;42.602;23.470;2022-08-19T06:06:39;14.80;;;8.35;;
11052;SDS011;55230;42.602;23.470;2022-08-19T06:09:07;9.43;;;8.20;;
11052;SDS011;55230;42.602;23.470;2022-08-19T06:11:36;9.38;;;7.90;;
11052;SDS011;55230;42.602;23.470;2022-08-19T06:14:08;11.05;;;8.10;;
11052;SDS011;55230;42.602;23.470;2022-08-19T06:16:36;10.55;;;7.70;;
11052;SDS011;55230;42.602;23.470;2022-08-19T06:19:05;9.75;;;7.85;;
11052;SDS011;55230;42.602;23.470;2022-08-19T06:21:35;10.25;;;7.80;;
11052;SDS011;55230;42.602;23.470;2022-08-19T06:24:04;8.65;;;7.45;;
11052;SDS011;55230;42.602;23.470;2022-08-19T06:26:34;12.07;;;8.15;;
11052;SDS011;55230;42.602;23.470;2022-08-19T06:29:02;15.98;;;11.15;;
11052;SDS011;55230;42.602;23.470;2022-08-19T06:31:31;8.68;;;7.78;;
11052;SDS011;55230;42.602;23.470;2022-08-19T06:33:59;10.07;;;8.38;;
11052;SDS011;55230;42.602;23.470;2022-08-19T06:36:29;9.07;;;7.90;;
11052;SDS011;55230;42.602;23.470;2022-08-19T06:38:59;9.45;;;7.93;;
11052;SDS011;55230;42.602;23.470;2022-08-19T06:41:27;13.45;;;8.45;;
11052;SDS011;55230;42.602;23.470;2022-08-19T06:43:56;9.13;;;8.07;;
11052;SDS011;55230;42.602;23.470;2022-08-19T06:46:23;11.02;;;7.95;;
11052;SDS011;55230;42.602;23.470;2022-08-19T06:48:51;9.07;;;7.72;;
11052;SDS011;55230;42.602;23.470;2022-08-19T06:51:19;10.52;;;8.10;;
11052;SDS011;55230;42.602;23.470;2022-08-19T06:53:47;9.88;;;8.23;;
11052;SDS011;55230;42.602;23.470;2022-08-19T06:56:15;8.38;;;7.63;;
11052;SDS011;55230;42.602;23.470;2022-08-19T06:58:43;10.00;;;7.85;;
11052;SDS011;55230;42.602;23.470;2022-08-19T07:01:13;9.38;;;7.65;;
11052;SDS011;55230;42.602;23.470;2022-08-19T07:03:39;8.77;;;7.97;;
11052;SDS011;55230;42.602;23.470;2022-08-19T07:06:07;10.88;;;7.85;;
11052;SDS011;55230;42.602;23.470;2022-08-19T07:08:36;8.07;;;7.28;;
11052;SDS011;55230;42.602;23.470;2022-08-19T07:11:06;8.07;;;7.28;;
11052;SDS011;55230;42.602;23.470;2022-08-19T07:13:34;8.43;;;7.47;;
11052;SDS011;55230;42.602;23.470;2022-08-19T07:16:02;7.68;;;6.97;;
11052;SDS011;55230;42.602;23.470;2022-08-19T07:18:32;8.02;;;7.28;;
11052;SDS011;55230;42.602;23.470;2022-08-19T07:21:03;7.95;;;7.25;;
11052;SDS011;55230;42.602;23.470;2022-08-19T07:23:30;10.45;;;7.68;;
11052;SDS011;55230;42.602;23.470;2022-08-19T07:25:57;8.02;;;7.25;;
11052;SDS011;55230;42.602;23.470;2022-08-19T07:28:24;10.48;;;7.47;;
11052;SDS011;55230;42.602;23.470;2022-08-19T07:30:51;9.30;;;7.03;;
11052;SDS011;55230;42.602;23.470;2022-08-19T07:33:18;8.60;;;7.00;;
11052;SDS011;55230;42.602;23.470;2022-08-19T07:35:47;8.48;;;6.90;;
11052;SDS011;55230;42.602;23.470;2022-08-19T07:38:14;9.55;;;7.85;;
11052;SDS011;55230;42.602;23.470;2022-08-19T07:40:43;8.32;;;7.10;;
11052;SDS011;55230;42.602;23.470;2022-08-19T07:43:11;9.60;;;6.80;;
11052;SDS011;55230;42.602;23.470;2022-08-19T07:45:38;8.57;;;7.30;;
11052;SDS011;55230;42.602;23.470;2022-08-19T07:48:05;7.40;;;6.68;;
11052;SDS011;55230;42.602;23.470;2022-08-19T07:50:31;9.90;;;6.95;;
11052;SDS011;55230;42.602;23.470;2022-08-19T07:53:00;9.57;;;6.90;;
11052;SDS011;55230;42.602;23.470;2022-08-19T07:55:26;7.20;;;6.50;;
11052;SDS011;55230;42.602;23.470;2022-08-19T07:57:53;7.22;;;6.53;;
11052;SDS011;55230;42.602;23.470;2022-08-19T08:00:20;7.13;;;6.43;;
11052;SDS011;55230;42.602;23.470;2022-08-19T08:02:47;7.20;;;6.50;;
11052;SDS011;55230;42.602;23.470;2022-08-19T08:05:14;9.27;;;6.55;;
11052;SDS011;55230;42.602;23.470;2022-08-19T08:07:59;7.63;;;6.88;;
11052;SDS011;55230;42.602;23.470;2022-08-19T08:10:44;8.75;;;6.53;;
11052;SDS011;55230;42.602;23.470;2022-08-19T08:13:10;7.13;;;6.43;;
11052;SDS011;55230;42.602;23.470;2022-08-19T08:15:38;9.40;;;6.07;;
11052;SDS011;55230;42.602;23.470;2022-08-19T08:18:05;7.80;;;6.50;;
11052;SDS011;55230;42.602;23.470;2022-08-19T08:20:31;9.13;;;6.75;;
11052;SDS011;55230;42.602;23.470;2022-08-19T08:23:00;7.30;;;6.60;;
11052;SDS011;55230;42.602;23.470;2022-08-19T08:25:44;6.55;;;6.05;;
11052;SDS011;55230;42.602;23.470;2022-08-19T08:28:11;8.00;;;6.28;;
11052;SDS011;55230;42.602;23.470;2022-08-19T08:30:38;7.28;;;5.90;;
11052;SDS011;55230;42.602;23.470;2022-08-19T08:33:07;6.38;;;5.53;;
11052;SDS011;55230;42.602;23.470;2022-08-19T08:35:34;9.77;;;5.80;;
11052;SDS011;55230;42.602;23.470;2022-08-19T08:38:03;8.00;;;6.00;;
11052;SDS011;55230;42.602;23.470;2022-08-19T08:40:38;7.95;;;5.68;;
11052;SDS011;55230;42.602;23.470;2022-08-19T08:43:11;7.18;;;5.72;;
11052;SDS011;55230;42.602;23.470;2022-08-19T08:45:49;6.72;;;5.70;;
11052;SDS011;55230;42.602;23.470;2022-08-19T08:48:22;6.28;;;5.65;;
11052;SDS011;55230;42.602;23.470;2022-08-19T08:50:53;6.13;;;5.53;;
11052;SDS011;55230;42.602;23.470;2022-08-19T08:53:24;6.05;;;5.30;;
11052;SDS011;55230;42.602;23.470;2022-08-19T08:55:52;5.97;;;5.40;;
11052;SDS011;55230;42.602;23.470;2022-08-19T08:58:20;5.60;;;5.07;;
11052;SDS011;55230;42.602;23.470;2022-08-19T09:00:52;6.78;;;5.07;;
11052;SDS011;55230;42.602;23.470;2022-08-19T09:03:20;5.50;;;5.00;;
11052;SDS011;55230;42.602;23.470;2022-08-19T09:05:50;5.53;;;5.03;;
11052;SDS011;55230;42.602;23.470;2022-08-19T09:08:29;5.30;;;4.78;;
11052;SDS011;55230;42.602;23.470;2022-08-19T09:11:06;5.13;;;4.70;;
11052;SDS011;55230;42.602;23.470;2022-08-19T09:13:42;5.70;;;4.80;;
11052;SDS011;55230;42.602;23.470;2022-08-19T09:16:22;7.15;;;4.70;;
11052;SDS011;55230;42.602;23.470;2022-08-19T09:18:52;5.03;;;4.63;;
11052;SDS011;55230;42.602;23.470;2022-08-19T09:21:24;6.15;;;4.70;;
11052;SDS011;55230;42.602;23.470;2022-08-19T09:23:53;6.55;;;4.40;;
11052;SDS011;55230;42.602;23.470;2022-08-19T09:26:21;6.95;;;4.55;;
11052;SDS011;55230;42.602;23.470;2022-08-19T09:28:50;4.45;;;4.15;;
11052;SDS011;55230;42.602;23.470;2022-08-19T09:31:19;5.40;;;4.70;;
11052;SDS011;55230;42.602;23.470;2022-08-19T09:33:48;4.80;;;4.38;;
11052;SDS011;55230;42.602;23.470;2022-08-19T09:36:16;4.50;;;4.18;;
11052;SDS011;55230;42.602;23.470;2022-08-19T09:38:47;6.03;;;3.92;;
11052;SDS011;55230;42.602;23.470;2022-08-19T09:41:17;5.40;;;3.67;;
11052;SDS011;55230;42.602;23.470;2022-08-19T09:43:46;4.47;;;4.07;;
11052;SDS011;55230;42.602;23.470;2022-08-19T09:46:17;5.03;;;4.60;;
11052;SDS011;55230;42.602;23.470;2022-08-19T09:48:46;5.10;;;4.68;;
11052;SDS011;55230;42.602;23.470;2022-08-19T09:51:14;5.30;;;4.80;;
11052;SDS011;55230;42.602;23.470;2022-08-19T09:53:43;5.00;;;4.50;;
11052;SDS011;55230;42.602;23.470;2022-08-19T09:56:11;4.75;;;4.35;;
11052;SDS011;55230;42.602;23.470;2022-08-19T09:58:43;4.65;;;4.22;;
11052;SDS011;55230;42.602;23.470;2022-08-19T10:01:14;9.20;;;4.22;;
11052;SDS011;55230;42.602;23.470;2022-08-19T10:03:43;4.78;;;4.38;;
11052;SDS011;55230;42.602;23.470;2022-08-19T10:06:12;5.35;;;4.60;;
11052;SDS011;55230;42.602;23.470;2022-08-19T10:08:39;5.80;;;4.82;;
11052;SDS011;55230;42.602;23.470;2022-08-19T10:11:06;5.28;;;4.78;;
11052;SDS011;55230;42.602;23.470;2022-08-19T10:13:35;6.22;;;4.53;;
11052;SDS011;55230;42.602;23.470;2022-08-19T10:16:04;4.72;;;4.28;;
11052;SDS011;55230;42.602;23.470;2022-08-19T10:18:33;5.30;;;4.80;;
11052;SDS011;55230;42.602;23.470;2022-08-19T10:21:03;6.47;;;4.65;;
11052;SDS011;55230;42.602;23.470;2022-08-19T10:23:34;6.00;;;4.75;;
11052;SDS011;55230;42.602;23.470;2022-08-19T10:26:02;4.65;;;4.18;;
11052;SDS011;55230;42.602;23.470;2022-08-19T10:28:31;6.78;;;4.40;;
11052;SDS011;55230;42.602;23.470;2022-08-19T10:30:58;4.93;;;4.50;;
11052;SDS011;55230;42.602;23.470;2022-08-19T10:33:30;6.13;;;4.93;;
11052;SDS011;55230;42.602;23.470;2022-08-19T10:36:00;5.07;;;4.60;;
11052;SDS011;55230;42.602;23.470;2022-08-19T10:38:28;5.07;;;4.50;;
11052;SDS011;55230;42.602;23.470;2022-08-19T10:40:55;6.13;;;5.03;;
11052;SDS011;55230;42.602;23.470;2022-08-19T10:43:22;5.47;;;4.55;;
11052;SDS011;55230;42.602;23.470;2022-08-19T10:45:51;5.15;;;4.72;;
11052;SDS011;55230;42.602;23.470;2022-08-19T10:48:21;5.60;;;4.72;;
11052;SDS011;55230;42.602;23.470;2022-08-19T10:50:49;8.35;;;4.70;;
11052;SDS011;55230;42.602;23.470;2022-08-19T10:53:33;5.15;;;4.47;;
11052;SDS011;55230;42.602;23.470;2022-08-19T10:56:00;4.75;;;4.40;;
11052;SDS011;55230;42.602;23.470;2022-08-19T10:58:44;5.28;;;4.78;;
11052;SDS011;55230;42.602;23.470;2022-08-19T11:01:11;6.00;;;4.70;;
11052;SDS011;55230;42.602;23.470;2022-08-19T11:03:38;5.50;;;5.00;;
11052;SDS011;55230;42.602;23.470;2022-08-19T11:06:07;6.15;;;4.65;;
11052;SDS011;55230;42.602;23.470;2022-08-19T11:08:35;5.22;;;4.45;;
11052;SDS011;55230;42.602;23.470;2022-08-19T11:11:04;7.05;;;5.35;;
11052;SDS011;55230;42.602;23.470;2022-08-19T11:13:35;5.28;;;4.60;;
11052;SDS011;55230;42.602;23.470;2022-08-19T11:16:05;5.20;;;4.43;;
11052;SDS011;55230;42.602;23.470;2022-08-19T11:18:34;5.20;;;4.72;;
11052;SDS011;55230;42.602;23.470;2022-08-19T11:21:12;5.57;;;4.93;;
11052;SDS011;55230;42.602;23.470;2022-08-19T11:23:42;8.15;;;5.15;;
11052;SDS011;55230;42.602;23.470;2022-08-19T11:26:09;5.30;;;4.80;;
11052;SDS011;55230;42.602;23.470;2022-08-19T11:28:37;5.20;;;4.72;;
11052;SDS011;55230;42.602;23.470;2022-08-19T11:31:04;5.20;;;4.75;;
11052;SDS011;55230;42.602;23.470;2022-08-19T11:33:31;5.30;;;4.80;;
11052;SDS011;55230;42.602;23.470;2022-08-19T11:35:58;5.43;;;4.93;;
11052;SDS011;55230;42.602;23.470;2022-08-19T11:38:27;9.20;;;5.47;;
11052;SDS011;55230;42.602;23.470;2022-08-19T11:40:55;5.68;;;5.03;;
11052;SDS011;55230;42.602;23.470;2022-08-19T11:43:23;6.22;;;5.07;;
11052;SDS011;55230;42.602;23.470;2022-08-19T11:45:51;5.50;;;5.00;;
11052;SDS011;55230;42.602;23.470;2022-08-19T11:48:18;6.10;;;5.50;;
11052;SDS011;55230;42.602;23.470;2022-08-19T11:50:47;5.45;;;4.95;;
11052;SDS011;55230;42.602;23.470;2022-08-19T11:53:13;6.05;;;4.82;;
11052;SDS011;55230;42.602;23.470;2022-08-19T11:55:42;5.32;;;4.85;;
11052;SDS011;55230;42.602;23.470;2022-08-19T11:58:09;5.88;;;5.25;;
11052;SDS011;55230;42.602;23.470;2022-08-19T12:00:37;7.50;;;5.20;;
11052;SDS011;55230;42.602;23.470;2022-08-19T12:03:04;6.93;;;5.30;;
11052;SDS011;55230;42.602;23.470;2022-08-19T12:05:32;5.97;;;5.22;;
11052;SDS011;55230;42.602;23.470;2022-08-19T12:07:58;7.45;;;5.10;;
11052;SDS011;55230;42.602;23.470;2022-08-19T12:10:25;6.20;;;5.60;;
11052;SDS011;55230;42.602;23.470;2022-08-19T12:12:53;6.03;;;5.43;;
11052;SDS011;55230;42.602;23.470;2022-08-19T12:15:20;6.28;;;4.93;;
11052;SDS011;55230;42.602;23.470;2022-08-19T12:17:47;5.70;;;4.97;;
11052;SDS011;55230;42.602;23.470;2022-08-19T12:20:14;6.90;;;5.30;;
11052;SDS011;55230;42.602;23.470;2022-08-19T12:22:44;6.20;;;5.43;;
11052;SDS011;55230;42.602;23.470;2022-08-19T12:25:11;5.65;;;5.15;;
11052;SDS011;55230;42.602;23.470;2022-08-19T12:27:38;6.88;;;5.60;;
11052;SDS011;55230;42.602;23.470;2022-08-19T12:30:10;6.60;;;4.90;;
11052;SDS011;55230;42.602;23.470;2022-08-19T12:32:39;5.57;;;5.05;;
11052;SDS011;55230;42.602;23.470;2022-08-19T12:35:06;6.55;;;5.40;;
11052;SDS011;55230;42.602;23.470;2022-08-19T12:37:37;11.30;;;5.85;;
11052;SDS011;55230;42.602;23.470;2022-08-19T12:40:04;9.45;;;5.63;;
11052;SDS011;55230;42.602;23.470;2022-08-19T12:42:32;6.40;;;5.28;;
11052;SDS011;55230;42.602;23.470;2022-08-19T12:44:59;6.38;;;5.30;;
11052;SDS011;55230;42.602;23.470;2022-08-19T12:47:28;7.45;;;5.05;;
11052;SDS011;55230;42.602;23.470;2022-08-19T12:49:55;8.95;;;5.20;;
11052;SDS011;55230;42.602;23.470;2022-08-19T12:52:23;5.43;;;4.80;;
11052;SDS011;55230;42.602;23.470;2022-08-19T12:54:51;5.57;;;5.00;;
11052;SDS011;55230;42.602;23.470;2022-08-19T12:57:19;15.98;;;14.45;;
11052;SDS011;55230;42.602;23.470;2022-08-19T12:59:46;12.35;;;7.00;;
11052;SDS011;55230;42.602;23.470;2022-08-19T13:02:13;6.55;;;5.20;;
11052;SDS011;55230;42.602;23.470;2022-08-19T13:04:41;6.78;;;5.65;;
11052;SDS011;55230;42.602;23.470;2022-08-19T13:07:08;6.85;;;5.57;;
11052;SDS011;55230;42.602;23.470;2022-08-19T13:09:35;6.88;;;5.40;;
11052;SDS011;55230;42.602;23.470;2022-08-19T13:12:02;6.95;;;5.80;;
11052;SDS011;55230;42.602;23.470;2022-08-19T13:14:33;7.65;;;5.72;;
11052;SDS011;55230;42.602;23.470;2022-08-19T13:17:00;7.75;;;5.30;;
11052;SDS011;55230;42.602;23.470;2022-08-19T13:19:27;7.57;;;5.65;;
11052;SDS011;55230;42.602;23.470;2022-08-19T13:21:56;7.93;;;5.82;;
11052;SDS011;55230;42.602;23.470;2022-08-19T13:24:24;9.10;;;5.57;;
11052;SDS011;55230;42.602;23.470;2022-08-19T13:26:51;6.95;;;5.45;;
11052;SDS011;55230;42.602;23.470;2022-08-19T13:29:17;6.68;;;5.13;;
11052;SDS011;55230;42.602;23.470;2022-08-19T13:32:02;7.72;;;6.00;;
11052;SDS011;55230;42.602;23.470;2022-08-19T13:34:47;6.47;;;5.30;;
11052;SDS011;55230;42.602;23.470;2022-08-19T13:37:15;6.03;;;5.20;;
11052;SDS011;55230;42.602;23.470;2022-08-19T13:40:02;7.40;;;5.93;;
11052;SDS011;55230;42.602;23.470;2022-08-19T13:42:29;7.78;;;5.90;;
11052;SDS011;55230;42.602;23.470;2022-08-19T13:44:56;6.28;;;5.68;;
11052;SDS011;55230;42.602;23.470;2022-08-19T13:47:23;7.88;;;5.70;;
11052;SDS011;55230;42.602;23.470;2022-08-19T13:49:50;7.97;;;5.97;;
11052;SDS011;55230;42.602;23.470;2022-08-19T13:52:19;9.13;;;5.57;;
11052;SDS011;55230;42.602;23.470;2022-08-19T13:54:45;7.15;;;5.50;;
11052;SDS011;55230;42.602;23.470;2022-08-19T13:57:13;6.15;;;5.55;;
11052;SDS011;55230;42.602;23.470;2022-08-19T13:59:40;6.10;;;5.60;;
11052;SDS011;55230;42.602;23.470;2022-08-19T14:02:07;7.43;;;6.20;;
11052;SDS011;55230;42.602;23.470;2022-08-19T14:04:33;6.80;;;5.38;;
11052;SDS011;55230;42.602;23.470;2022-08-19T14:07:00;6.10;;;5.57;;
11052;SDS011;55230;42.602;23.470;2022-08-19T14:09:28;5.97;;;5.38;;
11052;SDS011;55230;42.602;23.470;2022-08-19T14:11:55;8.95;;;5.55;;
11052;SDS011;55230;42.602;23.470;2022-08-19T14:14:22;6.53;;;5.93;;
11052;SDS011;55230;42.602;23.470;2022-08-19T14:16:49;6.35;;;5.75;;
11052;SDS011;55230;42.602;23.470;2022-08-19T14:19:16;5.97;;;5.40;;
11052;SDS011;55230;42.602;23.470;2022-08-19T14:21:44;10.68;;;5.50;;
11052;SDS011;55230;42.602;23.470;2022-08-19T14:24:11;8.38;;;5.70;;
11052;SDS011;55230;42.602;23.470;2022-08-19T14:26:39;6.15;;;5.55;;
11052;SDS011;55230;42.602;23.470;2022-08-19T14:29:06;8.18;;;6.70;;
11052;SDS011;55230;42.602;23.470;2022-08-19T14:31:33;9.52;;;6.75;;
11052;SDS011;55230;42.602;23.470;2022-08-19T14:34:00;8.10;;;5.82;;
11052;SDS011;55230;42.602;23.470;2022-08-19T14:36:26;9.10;;;6.38;;
11052;SDS011;55230;42.602;23.470;2022-08-19T14:38:53;7.57;;;5.57;;
11052;SDS011;55230;42.602;23.470;2022-08-19T14:41:21;5.68;;;5.28;;
11052;SDS011;55230;42.602;23.470;2022-08-19T14:43:51;6.97;;;5.57;;